Time;durP1;ratioP1;P1;durP2;ratioP2;P2;SDS_P1;SDS_P2;PMS_P1;PMS_P2;Temp;Humidity;BMP_temperature;BMP_pressure;BME280_temperature;BME280_humidity;BME280_pressure;Samples;Min_cycle;Max_cycle;Signal;HPM_P1;HPM_P2
2022/09/28 00:01:57;;;;;;;13.57;7.10;;;;;;;8.35;100.00;97238.53;5146735;27;20193;-82
2022/09/28 00:04:26;;;;;;;8.97;7.47;;;;;;;8.32;100.00;97239.59;5149415;27;20210;-82
2022/09/28 00:06:55;;;;;;;9.17;7.47;;;;;;;8.39;100.00;97245.19;5150000;27;20186;-82
2022/09/28 00:09:23;;;;;;;11.37;7.80;;;;;;;8.45;100.00;97239.41;5152182;27;20268;-82
2022/09/28 00:11:52;;;;;;;10.27;8.00;;;;;;;8.46;100.00;97235.81;5147037;27;20186;-82
2022/09/28 00:14:21;;;;;;;15.47;9.10;;;;;;;8.49;100.00;97227.63;5095500;27;20189;-82
2022/09/28 00:16:51;;;;;;;12.27;9.27;;;;;;;8.43;100.00;97226.34;5146911;27;20294;-82
2022/09/28 00:19:21;;;;;;;13.20;8.93;;;;;;;8.43;100.00;97238.72;5153037;27;20266;-82
2022/09/28 00:21:49;;;;;;;12.60;9.77;;;;;;;8.42;100.00;97239.69;5145812;27;20196;-82
2022/09/28 00:24:19;;;;;;;10.63;9.23;;;;;;;8.47;100.00;97227.75;5142437;27;20245;-82
2022/09/28 00:26:55;;;;;;;13.07;9.87;;;;;;;8.33;100.00;97231.56;5150937;27;20674;-82
2022/09/28 00:29:25;;;;;;;12.87;9.40;;;;;;;8.48;100.00;97229.41;5151537;27;20198;-83
2022/09/28 00:31:58;;;;;;;10.30;9.00;;;;;;;8.47;100.00;97219.00;5144526;27;20211;-83
2022/09/28 00:34:30;;;;;;;11.23;9.13;;;;;;;8.48;100.00;97215.41;5153847;27;20276;-82
2022/09/28 00:36:59;;;;;;;11.73;9.60;;;;;;;8.50;100.00;97213.47;5151876;27;20186;-83
2022/09/28 00:39:30;;;;;;;12.90;9.83;;;;;;;8.49;100.00;97217.94;5135026;27;20226;-82
2022/09/28 00:41:59;;;;;;;13.77;10.07;;;;;;;8.49;100.00;97212.66;5129245;27;20197;-82
2022/09/28 00:44:43;;;;;;;12.37;10.23;;;;;;;8.42;100.00;97203.59;5128484;27;20214;-83
2022/09/28 00:47:36;;;;;;;14.70;10.63;;;;;;;8.52;100.00;97204.47;5130111;27;20229;-82
2022/09/28 00:50:11;;;;;;;11.93;10.10;;;;;;;8.47;100.00;97197.91;5128353;27;20226;-82
2022/09/28 00:52:42;;;;;;;12.17;9.80;;;;;;;8.49;100.00;97203.88;5130956;27;20479;-82
2022/09/28 00:55:16;;;;;;;10.70;9.20;;;;;;;8.48;100.00;97195.13;5066373;28;20321;-82
2022/09/28 00:57:49;;;;;;;10.03;8.70;;;;;;;8.54;100.00;97199.88;5078414;28;20241;-82
2022/09/28 01:00:17;;;;;;;10.27;9.13;;;;;;;8.51;100.00;97196.69;5093651;28;20194;-83
2022/09/28 01:02:47;;;;;;;11.57;9.37;;;;;;;8.52;100.00;97190.44;5092433;28;20639;-81
2022/09/28 01:05:18;;;;;;;9.63;8.63;;;;;;;8.53;100.00;97181.53;5085985;28;20238;-82
2022/09/28 01:07:47;;;;;;;11.80;8.97;;;;;;;8.52;100.00;97170.16;5089538;28;20219;-82
2022/09/28 01:10:17;;;;;;;10.20;9.07;;;;;;;8.56;100.00;97158.34;5089285;28;20223;-82
2022/09/28 01:12:46;;;;;;;11.80;8.97;;;;;;;8.54;100.00;97143.63;5104202;27;20223;-82
2022/09/28 01:15:15;;;;;;;11.13;9.17;;;;;;;8.57;100.00;97146.81;5148868;27;20238;-82
2022/09/28 01:17:58;;;;;;;10.70;9.47;;;;;;;8.64;100.00;97154.22;5144088;27;20253;-82
2022/09/28 01:20:54;;;;;;;13.63;10.60;;;;;;;8.62;100.00;97149.06;5147026;27;20192;-82
2022/09/28 01:23:54;;;;;;;12.27;9.90;;;;;;;8.67;100.00;97136.28;5152196;27;20208;-82
2022/09/28 01:26:49;;;;;;;10.57;9.47;;;;;;;8.72;100.00;97139.38;5154005;27;20196;-82
2022/09/28 01:29:26;;;;;;;12.07;9.57;;;;;;;8.69;100.00;97134.38;5149087;27;20185;-83
2022/09/28 01:32:04;;;;;;;13.73;10.23;;;;;;;8.51;100.00;97131.56;5153910;27;20261;-83
2022/09/28 01:34:41;;;;;;;11.13;9.60;;;;;;;8.64;100.00;97130.47;5120377;27;20214;-83
2022/09/28 01:37:15;;;;;;;14.70;10.60;;;;;;;8.59;100.00;97131.72;5155483;27;20208;-83
2022/09/28 01:39:49;;;;;;;11.83;10.60;;;;;;;8.66;100.00;97128.53;5156542;27;20202;-83
2022/09/28 01:42:23;;;;;;;14.43;11.23;;;;;;;8.55;100.00;97124.19;5153605;27;20197;-83
2022/09/28 01:44:54;;;;;;;15.57;12.43;;;;;;;8.58;100.00;97119.47;5152320;27;20244;-83
2022/09/28 01:47:26;;;;;;;14.80;12.20;;;;;;;8.58;100.00;97116.00;5153312;27;20652;-83
2022/09/28 01:50:00;;;;;;;13.30;11.90;;;;;;;8.61;100.00;97118.38;5150896;27;20224;-82
2022/09/28 01:52:35;;;;;;;18.07;12.50;;;;;;;8.51;100.00;97109.63;5150874;27;20216;-83
2022/09/28 01:55:10;;;;;;;14.37;11.90;;;;;;;8.50;100.00;97102.69;5146894;27;20218;-83
2022/09/28 01:57:44;;;;;;;15.73;12.07;;;;;;;8.53;100.00;97105.88;5147404;27;20234;-82
2022/09/28 02:00:14;;;;;;;12.90;11.17;;;;;;;8.59;100.00;97091.31;5151570;27;20254;-82
2022/09/28 02:02:48;;;;;;;13.10;11.23;;;;;;;8.60;100.00;97100.91;5150600;27;20201;-82
2022/09/28 02:05:21;;;;;;;12.70;10.03;;;;;;;8.56;100.00;97100.31;5148949;27;20241;-83
2022/09/28 02:07:56;;;;;;;12.10;10.70;;;;;;;8.46;100.00;97098.63;5146167;27;20241;-83
2022/09/28 02:10:33;;;;;;;13.97;11.30;;;;;;;8.51;100.00;97099.06;5150022;27;20406;-83
2022/09/28 02:13:06;;;;;;;14.17;10.57;;;;;;;8.51;100.00;97093.78;5071803;28;20281;-83
2022/09/28 02:15:41;;;;;;;13.10;11.73;;;;;;;8.55;100.00;97090.72;5068354;28;20209;-83
2022/09/28 02:18:11;;;;;;;14.27;11.83;;;;;;;8.56;100.00;97089.75;5068563;28;20678;-83
2022/09/28 02:20:42;;;;;;;12.33;11.03;;;;;;;8.48;100.00;97088.78;5066607;28;20193;-83
2022/09/28 02:23:11;;;;;;;13.20;10.80;;;;;;;8.54;100.00;97086.44;5068540;28;20204;-84
2022/09/28 02:25:43;;;;;;;13.57;10.73;;;;;;;8.63;100.00;97087.41;5070015;28;20220;-84
2022/09/28 02:28:15;;;;;;;12.70;11.33;;;;;;;8.77;100.00;97079.09;5065263;28;20207;-83
2022/09/28 02:30:49;;;;;;;13.93;10.40;;;;;;;8.64;100.00;97088.25;5066500;28;20262;-83
2022/09/28 02:33:23;;;;;;;12.90;10.87;;;;;;;8.59;100.00;97078.94;5068753;28;20261;-84
2022/09/28 02:35:52;;;;;;;12.07;10.63;;;;;;;8.48;100.00;97089.59;5069978;28;20258;-83
2022/09/28 02:38:20;;;;;;;10.90;9.40;;;;;;;8.61;100.00;97089.38;5066269;28;20406;-84
2022/09/28 02:40:57;;;;;;;9.27;8.33;;;;;;;8.53;100.00;97084.75;5064078;28;20236;-84
2022/09/28 02:43:40;;;;;;;8.53;7.63;;;;;;;8.50;100.00;97082.41;5087105;27;20189;-84
2022/09/28 02:46:23;;;;;;;8.93;8.13;;;;;;;8.49;100.00;97087.78;5088586;28;20510;-84
2022/09/28 02:49:08;;;;;;;9.53;8.53;;;;;;;8.47;100.00;97095.84;5086865;28;20221;-83
2022/09/28 02:52:03;;;;;;;9.50;8.50;;;;;;;8.45;100.00;97091.69;5011127;28;20190;-84
2022/09/28 02:54:47;;;;;;;9.67;8.67;;;;;;;8.46;100.00;97086.28;5012051;28;20261;-83
2022/09/28 02:57:26;;;;;;;9.83;8.30;;;;;;;8.44;100.00;97087.38;5010142;28;20186;-84
2022/09/28 03:00:07;;;;;;;10.30;9.27;;;;;;;8.38;100.00;97094.03;5007187;28;20210;-83
2022/09/28 03:02:49;;;;;;;9.93;8.60;;;;;;;8.40;100.00;97086.84;5009047;28;20373;-83
2022/09/28 03:05:22;;;;;;;11.57;9.30;;;;;;;8.39;100.00;97085.13;5045021;28;20244;-83
2022/09/28 03:07:57;;;;;;;10.63;8.67;;;;;;;8.44;100.00;97080.31;5049802;28;20278;-82
2022/09/28 03:10:30;;;;;;;10.57;9.47;;;;;;;8.41;100.00;97083.22;5126162;27;20212;-83
2022/09/28 03:13:00;;;;;;;11.20;8.70;;;;;;;8.38;100.00;97080.00;5150635;27;20193;-83
2022/09/28 03:15:33;;;;;;;10.43;8.40;;;;;;;8.44;100.00;97080.31;5145457;27;20209;-83
2022/09/28 03:18:02;;;;;;;13.17;9.53;;;;;;;8.53;100.00;97079.50;5146598;27;20281;-83
2022/09/28 03:20:34;;;;;;;12.10;9.07;;;;;;;8.39;100.00;97081.66;5150161;27;20194;-83
2022/09/28 03:23:04;;;;;;;11.33;9.47;;;;;;;8.38;100.00;97080.00;5153205;27;20225;-83
2022/09/28 03:25:52;;;;;;;10.70;8.90;;;;;;;8.38;100.00;97082.63;5049800;28;20266;-83
2022/09/28 03:28:21;;;;;;;11.83;9.77;;;;;;;8.39;100.00;97086.94;5046929;28;20185;-83
2022/09/28 03:30:54;;;;;;;12.93;9.20;;;;;;;8.35;100.00;97088.19;5042951;28;20201;-82
2022/09/28 03:33:24;;;;;;;11.20;9.57;;;;;;;8.48;100.00;97092.25;5019250;28;20251;-83
2022/09/28 03:35:53;;;;;;;9.97;8.70;;;;;;;8.50;100.00;97087.69;5045597;28;20250;-83
2022/09/28 03:38:22;;;;;;;11.60;9.43;;;;;;;8.42;100.00;97084.06;5043218;28;20235;-82
2022/09/28 03:40:55;;;;;;;10.57;8.37;;;;;;;8.40;100.00;97086.84;5044743;28;20672;-83
2022/09/28 03:43:24;;;;;;;9.37;6.60;;;;;;;8.50;100.00;97084.22;5048793;28;20216;-83
2022/09/28 03:45:54;;;;;;;8.27;6.87;;;;;;;8.60;100.00;97093.81;5041988;28;20223;-83
2022/09/28 03:48:24;;;;;;;6.63;5.87;;;;;;;8.45;100.00;97094.31;5047187;28;20771;-83
2022/09/28 03:51:00;;;;;;;6.43;5.73;;;;;;;8.54;100.00;97086.44;5045742;28;20192;-83
2022/09/28 03:53:29;;;;;;;7.27;4.93;;;;;;;8.68;100.00;97085.19;5046818;28;20201;-83
2022/09/28 03:56:02;;;;;;;4.50;4.10;;;;;;;8.75;100.00;97083.66;5039977;28;20217;-83
2022/09/28 03:58:30;;;;;;;4.27;3.87;;;;;;;8.74;100.00;97081.19;5048270;28;20345;-83
2022/09/28 04:01:04;;;;;;;6.43;4.23;;;;;;;8.69;100.00;97071.03;5042317;28;20228;-82
2022/09/28 04:03:33;;;;;;;5.90;4.27;;;;;;;8.63;100.00;97076.03;5112947;27;20203;-83
2022/09/28 04:06:02;;;;;;;5.20;4.10;;;;;;;8.75;100.00;97067.00;5093726;28;20216;-83
2022/09/28 04:08:30;;;;;;;4.53;4.10;;;;;;;8.73;100.00;97069.78;5089567;28;20243;-84
2022/09/28 04:10:59;;;;;;;6.97;3.90;;;;;;;8.62;100.00;97074.38;5089329;28;20188;-83
2022/09/28 04:13:29;;;;;;;4.97;3.73;;;;;;;8.68;100.00;97076.44;5092074;28;20196;-83
2022/09/28 04:16:01;;;;;;;5.10;3.73;;;;;;;8.70;100.00;97074.53;5093259;28;20888;-83
2022/09/28 04:18:32;;;;;;;4.83;3.53;;;;;;;8.63;100.00;97073.41;5092087;28;20196;-84
2022/09/28 04:21:05;;;;;;;3.93;3.50;;;;;;;8.55;100.00;97074.06;5096463;28;20202;-83
2022/09/28 04:23:35;;;;;;;4.90;3.90;;;;;;;8.54;100.00;97077.69;5103602;27;20221;-83
2022/09/28 04:26:04;;;;;;;4.57;3.63;;;;;;;8.57;100.00;97072.94;5165140;27;20221;-84
2022/09/28 04:31:20;;;;;;;5.47;3.43;;;;;;;8.65;100.00;97074.91;5158052;27;20222;-83
2022/09/28 04:33:52;;;;;;;3.87;3.43;;;;;;;8.69;100.00;97071.03;5151753;27;20201;-83
2022/09/28 04:36:20;;;;;;;4.83;3.67;;;;;;;8.67;100.00;97075.59;5153943;27;20193;-83
2022/09/28 04:38:49;;;;;;;7.27;3.77;;;;;;;8.59;100.00;97072.84;5157103;27;20190;-84
2022/09/28 04:41:21;;;;;;;5.97;4.00;;;;;;;8.66;100.00;97073.09;5154867;27;20198;-84
2022/09/28 04:43:50;;;;;;;5.50;3.63;;;;;;;8.40;100.00;97070.19;5154451;27;20246;-83
2022/09/28 04:46:20;;;;;;;4.97;4.20;;;;;;;8.35;100.00;97078.47;5152171;27;20304;-84
2022/09/28 04:48:48;;;;;;;4.93;3.67;;;;;;;8.47;100.00;97074.75;5153814;27;20189;-83
2022/09/28 04:51:18;;;;;;;5.73;3.70;;;;;;;8.46;100.00;97081.00;5149204;27;20186;-83
2022/09/28 04:53:47;;;;;;;7.37;4.10;;;;;;;8.49;100.00;97071.97;5153392;27;20656;-84
2022/09/28 04:56:16;;;;;;;7.40;4.10;;;;;;;8.58;100.00;97076.44;5153762;27;20297;-84
2022/09/28 04:58:45;;;;;;;5.13;3.93;;;;;;;8.54;100.00;97067.13;5151824;27;20194;-84
2022/09/28 05:01:22;;;;;;;6.63;3.97;;;;;;;8.52;100.00;97079.63;5150584;27;20193;-84
2022/09/28 05:03:51;;;;;;;6.50;3.53;;;;;;;8.47;100.00;97084.47;5152953;27;20705;-83
2022/09/28 05:06:26;;;;;;;5.20;3.80;;;;;;;8.48;100.00;97083.50;5149388;27;20210;-83
2022/09/28 05:08:56;;;;;;;5.27;3.70;;;;;;;8.45;100.00;97084.59;5088843;28;20225;-83
2022/09/28 05:11:24;;;;;;;4.90;3.97;;;;;;;8.25;100.00;97088.97;5089897;28;20196;-83
2022/09/28 05:13:53;;;;;;;6.37;3.73;;;;;;;8.33;100.00;97089.13;5088520;28;20314;-83
2022/09/28 05:16:24;;;;;;;5.80;3.77;;;;;;;8.28;100.00;97091.34;5083242;28;20233;-83
2022/09/28 05:18:55;;;;;;;5.87;3.90;;;;;;;8.29;100.00;97100.06;5090537;28;20642;-83
2022/09/28 05:21:28;;;;;;;5.37;3.93;;;;;;;8.19;100.00;97100.03;5091062;28;20200;-82
2022/09/28 05:23:57;;;;;;;5.53;3.97;;;;;;;8.22;100.00;97098.97;5086028;28;20225;-83
2022/09/28 05:26:27;;;;;;;6.70;4.30;;;;;;;8.30;100.00;97093.88;5096418;27;20249;-83
2022/09/28 05:28:56;;;;;;;7.27;4.10;;;;;;;8.10;100.00;97106.13;5151627;27;20312;-83
2022/09/28 05:31:26;;;;;;;5.67;4.47;;;;;;;8.22;100.00;97101.59;5150069;27;20186;-83
2022/09/28 05:33:54;;;;;;;6.33;4.07;;;;;;;8.32;100.00;97113.00;5151738;27;20211;-83
2022/09/28 05:36:25;;;;;;;5.53;3.80;;;;;;;8.28;100.00;97114.22;5152252;27;20244;-83
2022/09/28 05:38:55;;;;;;;7.10;3.63;;;;;;;8.28;100.00;97116.88;5150537;27;20235;-83
2022/09/28 05:41:24;;;;;;;5.93;4.17;;;;;;;8.28;100.00;97125.63;5144466;27;20217;-83
2022/09/28 05:43:53;;;;;;;5.00;4.03;;;;;;;8.33;100.00;97118.16;5156779;27;20186;-83
2022/09/28 05:46:22;;;;;;;5.57;3.90;;;;;;;8.40;100.00;97121.13;5150960;27;20253;-83
2022/09/28 05:48:51;;;;;;;8.10;4.00;;;;;;;8.37;100.00;97117.91;5151203;27;20265;-84
2022/09/28 05:51:19;;;;;;;6.77;4.10;;;;;;;8.39;100.00;97126.50;5151391;27;20198;-83
2022/09/28 05:53:49;;;;;;;4.97;4.00;;;;;;;8.38;100.00;97124.84;5146455;27;20270;-83
2022/09/28 05:56:19;;;;;;;5.50;4.20;;;;;;;8.30;100.00;97121.06;5150678;27;20198;-83
2022/09/28 05:58:49;;;;;;;6.03;3.87;;;;;;;8.32;100.00;97118.28;5152153;27;20220;-83
2022/09/28 06:01:17;;;;;;;5.90;4.03;;;;;;;8.51;100.00;97121.00;5144577;27;20192;-83
2022/09/28 06:03:48;;;;;;;9.13;4.20;;;;;;;8.14;100.00;97122.53;5151059;27;20238;-84
2022/09/28 06:06:16;;;;;;;8.47;3.93;;;;;;;8.01;100.00;97123.59;5151475;27;20277;-84
2022/09/28 06:08:47;;;;;;;4.67;3.70;;;;;;;8.06;100.00;97125.00;5148396;27;20218;-83
2022/09/28 06:11:15;;;;;;;5.13;3.70;;;;;;;8.00;100.00;97127.19;5148019;27;20285;-84
2022/09/28 06:13:45;;;;;;;6.47;4.00;;;;;;;8.07;100.00;97124.03;5149230;27;20201;-83
2022/09/28 06:16:15;;;;;;;6.60;3.93;;;;;;;7.97;100.00;97135.34;5142813;27;20217;-84
2022/09/28 06:18:44;;;;;;;6.30;4.33;;;;;;;7.99;100.00;97128.13;5146512;27;20201;-84
2022/09/28 06:21:14;;;;;;;4.97;3.90;;;;;;;8.26;100.00;97135.47;5147424;27;20238;-83
2022/09/28 06:23:42;;;;;;;6.07;4.00;;;;;;;8.29;100.00;97140.47;5069175;28;20192;-84
2022/09/28 06:26:17;;;;;;;6.27;3.80;;;;;;;8.28;100.00;97136.16;5069872;28;20204;-84
2022/09/28 06:28:47;;;;;;;5.90;3.57;;;;;;;8.24;100.00;97136.59;5003555;28;20234;-84
2022/09/28 06:31:15;;;;;;;5.93;3.37;;;;;;;8.22;100.00;97141.16;5003753;28;20226;-84
2022/09/28 06:33:44;;;;;;;4.60;2.90;;;;;;;8.32;100.00;97142.03;5010604;28;20321;-84
2022/09/28 06:36:12;;;;;;;4.00;3.33;;;;;;;8.36;100.00;97146.09;5002876;28;20226;-83
2022/09/28 06:38:41;;;;;;;6.60;3.50;;;;;;;8.41;100.00;97146.53;5010401;28;20193;-83
2022/09/28 06:41:11;;;;;;;4.47;3.03;;;;;;;8.30;100.00;97154.50;5027721;28;20266;-83
2022/09/28 06:43:39;;;;;;;5.63;3.03;;;;;;;8.47;100.00;97150.41;5091303;28;20238;-84
2022/09/28 06:46:10;;;;;;;3.60;2.70;;;;;;;8.27;100.00;97150.31;5095730;27;20227;-83
2022/09/28 06:48:38;;;;;;;4.60;3.63;;;;;;;8.11;100.00;97152.63;5155845;27;20248;-83
2022/09/28 06:51:07;;;;;;;4.73;3.13;;;;;;;8.40;100.00;97158.06;5098552;27;20201;-83
2022/09/28 06:53:36;;;;;;;4.87;3.50;;;;;;;8.40;100.00;97152.78;5148413;27;20194;-83
2022/09/28 06:56:05;;;;;;;4.40;3.30;;;;;;;8.39;100.00;97152.88;5146643;27;20202;-84
2022/09/28 06:58:34;;;;;;;5.57;3.60;;;;;;;8.46;100.00;97160.13;5143303;27;20433;-86
2022/09/28 07:01:02;;;;;;;4.33;3.10;;;;;;;8.42;100.00;97160.56;5139110;27;20225;-83
2022/09/28 07:03:33;;;;;;;5.17;3.20;;;;;;;8.46;100.00;97165.41;5148540;27;20205;-83
2022/09/28 07:06:03;;;;;;;5.37;3.80;;;;;;;8.54;100.00;97167.38;5146638;27;20209;-83
2022/09/28 07:08:32;;;;;;;4.33;3.57;;;;;;;8.46;100.00;97159.31;5149235;27;20249;-83
2022/09/28 07:11:06;;;;;;;5.67;3.93;;;;;;;8.68;100.00;97163.50;5150697;27;20221;-83
2022/09/28 07:13:36;;;;;;;4.13;3.73;;;;;;;8.69;100.00;97167.84;5155130;27;20193;-83
2022/09/28 07:16:18;;;;;;;7.30;3.70;;;;;;;8.61;100.00;97173.81;5147617;27;20194;-83
2022/09/28 07:18:55;;;;;;;4.33;3.50;;;;;;;8.25;100.00;97168.09;5127359;27;20198;-83
2022/09/28 07:21:23;;;;;;;4.93;4.13;;;;;;;8.33;100.00;97167.44;5126503;27;20227;-82
2022/09/28 07:23:58;;;;;;;6.70;4.00;;;;;;;8.43;100.00;97172.78;5130087;27;20190;-83
2022/09/28 07:26:26;;;;;;;8.87;3.90;;;;;;;8.62;100.00;97175.47;5124328;28;20680;-83
2022/09/28 07:28:56;;;;;;;6.20;4.17;;;;;;;8.45;100.00;97178.75;5126534;28;20218;-83
2022/09/28 07:31:26;;;;;;;5.73;4.60;;;;;;;8.32;100.00;97171.88;5064593;28;20242;-83
2022/09/28 07:33:57;;;;;;;7.40;5.03;;;;;;;8.41;100.00;97187.91;5005747;28;20224;-83
2022/09/28 07:36:27;;;;;;;8.10;5.20;;;;;;;8.37;100.00;97184.66;5002636;28;20272;-83
2022/09/28 07:38:56;;;;;;;8.30;5.07;;;;;;;8.46;100.00;97188.31;5006452;28;20201;-83
2022/09/28 07:41:31;;;;;;;9.03;5.67;;;;;;;8.57;100.00;97204.03;5004808;28;20229;-82
2022/09/28 07:44:06;;;;;;;6.50;4.73;;;;;;;8.58;100.00;97205.72;5007257;28;20201;-82
2022/09/28 07:46:34;;;;;;;5.77;4.57;;;;;;;8.63;100.00;97207.97;4969486;28;20323;-83
2022/09/28 07:49:05;;;;;;;7.87;5.30;;;;;;;8.57;100.00;97207.50;4928298;28;20266;-83
2022/09/28 07:51:42;;;;;;;6.67;4.90;;;;;;;8.56;100.00;97205.84;4972886;28;20195;-83
2022/09/28 07:54:12;;;;;;;4.83;3.90;;;;;;;8.45;100.00;97213.88;4969568;28;20221;-83
2022/09/28 07:56:40;;;;;;;8.77;4.67;;;;;;;8.54;100.00;97218.34;4971496;28;20254;-82
2022/09/28 07:59:09;;;;;;;9.63;4.77;;;;;;;8.70;100.00;97225.78;4966474;28;20199;-82
2022/09/28 08:01:39;;;;;;;8.13;4.87;;;;;;;8.70;100.00;97223.13;4968250;28;20290;-83
2022/09/28 08:04:11;;;;;;;5.40;3.90;;;;;;;8.64;100.00;97228.94;4983923;28;20202;-81
2022/09/28 08:06:39;;;;;;;5.57;3.83;;;;;;;8.70;100.00;97232.84;5099945;27;20193;-82
2022/09/28 08:09:08;;;;;;;4.53;3.50;;;;;;;8.50;100.00;97232.78;5150840;27;20214;-83
2022/09/28 08:11:36;;;;;;;6.67;3.87;;;;;;;8.53;100.00;97235.16;5153606;27;20236;-82
2022/09/28 08:14:04;;;;;;;4.07;3.70;;;;;;;8.53;100.00;97234.31;5147648;27;20200;-82
2022/09/28 08:16:33;;;;;;;5.10;4.00;;;;;;;8.48;100.00;97239.97;5147067;27;20233;-82
2022/09/28 08:19:08;;;;;;;4.30;3.90;;;;;;;8.48;100.00;97236.50;5156483;27;20220;-82
2022/09/28 08:21:44;;;;;;;4.47;3.90;;;;;;;8.54;100.00;97243.88;5153994;27;20202;-83
2022/09/28 08:24:13;;;;;;;5.20;4.07;;;;;;;8.73;100.00;97238.69;5150931;27;20196;-83
2022/09/28 08:26:42;;;;;;;4.40;3.50;;;;;;;8.75;100.00;97247.31;5152166;27;20190;-82
2022/09/28 08:29:11;;;;;;;4.40;3.30;;;;;;;8.76;100.00;97243.69;5153210;27;20267;-83
2022/09/28 08:31:39;;;;;;;4.70;3.50;;;;;;;9.13;100.00;97249.22;5148683;27;20215;-82
2022/09/28 08:34:08;;;;;;;4.47;3.10;;;;;;;9.27;100.00;97248.00;5149515;27;20225;-82
2022/09/28 08:36:39;;;;;;;3.70;3.03;;;;;;;9.12;100.00;97244.91;5150494;27;20225;-82
2022/09/28 08:39:10;;;;;;;6.47;3.13;;;;;;;9.33;100.00;97251.88;5148949;27;20194;-83
2022/09/28 08:41:44;;;;;;;4.23;2.70;;;;;;;9.45;100.00;97251.59;5148886;27;20221;-82
2022/09/28 08:44:22;;;;;;;3.07;2.47;;;;;;;9.40;100.00;97255.66;5154100;27;20192;-82
2022/09/28 08:47:00;;;;;;;2.57;2.37;;;;;;;9.20;100.00;97249.50;5144937;27;20197;-82
2022/09/28 08:49:35;;;;;;;2.23;1.80;;;;;;;9.18;100.00;97249.66;5148154;27;20286;-82
2022/09/28 08:52:13;;;;;;;2.27;1.90;;;;;;;9.34;100.00;97254.38;5155216;27;20735;-82
2022/09/28 08:54:53;;;;;;;2.27;2.03;;;;;;;9.25;100.00;97247.28;5152774;27;20216;-82
2022/09/28 08:57:29;;;;;;;3.90;2.43;;;;;;;9.33;100.00;97257.16;5070589;28;20271;-82
2022/09/28 08:59:58;;;;;;;3.70;2.23;;;;;;;9.09;100.00;97252.28;5065034;28;20220;-82
2022/09/28 09:02:32;;;;;;;2.53;2.30;;;;;;;9.10;100.00;97252.13;5067444;28;20204;-82
2022/09/28 09:05:03;;;;;;;2.77;2.33;;;;;;;9.25;100.00;97244.63;5072180;28;20197;-82
2022/09/28 09:10:47;;;;;;;5.23;4.73;;;;;;;9.35;100.00;97263.97;5022559;27;20551;-82
2022/09/28 09:13:38;;;;;;;4.97;2.33;;;;;;;9.44;100.00;97263.16;5014497;28;20202;-82
2022/09/28 09:16:16;;;;;;;2.90;2.70;;;;;;;9.52;100.00;97262.47;5012566;28;20191;-82
2022/09/28 09:18:52;;;;;;;2.77;2.47;;;;;;;9.41;100.00;97263.44;5013571;28;20226;-82
2022/09/28 09:21:39;;;;;;;3.60;3.30;;;;;;;9.28;100.00;97267.31;5013739;28;20202;-82
2022/09/28 09:24:26;;;;;;;2.67;2.47;;;;;;;9.35;100.00;97268.41;5016647;28;20229;-82
2022/09/28 09:27:05;;;;;;;3.43;2.20;;;;;;;9.70;100.00;97262.59;5020116;28;20234;-82
2022/09/28 09:29:55;;;;;;;5.60;4.40;;;;;;;9.60;100.00;97259.97;5020461;28;20221;-82
2022/09/28 09:32:43;;;;;;;18.60;11.63;;;;;;;9.42;100.00;97269.53;5012331;28;20225;-81
2022/09/28 09:35:50;;;;;;;2.90;2.00;;;;;;;9.80;100.00;97258.16;5016821;28;20219;-82
2022/09/28 09:38:33;;;;;;;3.80;3.33;;;;;;;9.80;100.00;97262.59;5014567;28;20220;-82
2022/09/28 09:41:16;;;;;;;2.13;1.73;;;;;;;10.03;100.00;97266.59;5017772;28;20273;-82
2022/09/28 09:44:05;;;;;;;5.07;2.27;;;;;;;10.26;100.00;97260.06;5016916;28;20202;-82
2022/09/28 09:46:40;;;;;;;3.30;2.53;;;;;;;10.44;100.00;97264.63;5046492;28;20335;-81
2022/09/28 09:49:15;;;;;;;4.60;4.20;;;;;;;10.09;100.00;97258.13;5039686;28;20719;-82
2022/09/28 09:51:47;;;;;;;2.50;1.60;;;;;;;9.88;100.00;97257.44;4997545;28;20196;-82
2022/09/28 09:54:24;;;;;;;2.57;2.20;;;;;;;9.84;100.00;97258.69;5046168;28;20194;-82
2022/09/28 09:56:58;;;;;;;2.07;1.90;;;;;;;10.11;100.00;97257.97;5045484;28;20224;-82
2022/09/28 09:59:34;;;;;;;2.20;1.60;;;;;;;10.02;100.00;97254.34;5053241;28;20223;-81
2022/09/28 10:02:10;;;;;;;2.53;1.80;;;;;;;10.00;100.00;97258.97;5047011;28;20180;-81
2022/09/28 10:04:45;;;;;;;4.17;3.87;;;;;;;9.79;100.00;97269.69;5027215;28;20199;-81
2022/09/28 10:07:22;;;;;;;3.83;2.63;;;;;;;9.66;100.00;97264.72;5014585;28;20186;-81
2022/09/28 10:09:55;;;;;;;3.23;2.93;;;;;;;9.72;100.00;97273.88;5014493;28;20230;-81
2022/09/28 10:12:24;;;;;;;3.10;2.87;;;;;;;9.70;100.00;97274.00;5013538;28;20194;-81
2022/09/28 10:14:55;;;;;;;4.73;3.80;;;;;;;9.50;100.00;97274.16;5015669;28;20244;-80
2022/09/28 10:17:28;;;;;;;4.30;3.90;;;;;;;9.61;100.00;97284.59;5014134;28;20722;-81
2022/09/28 10:19:57;;;;;;;5.67;4.77;;;;;;;9.30;100.00;97281.22;5014188;28;20221;-81
2022/09/28 10:22:27;;;;;;;6.97;6.17;;;;;;;9.40;100.00;97284.72;5041088;28;20207;-81
2022/09/28 10:24:57;;;;;;;5.63;4.83;;;;;;;9.54;100.00;97286.94;5003418;28;20199;-82
2022/09/28 10:27:30;;;;;;;6.17;5.57;;;;;;;9.43;100.00;97284.41;5003534;28;20230;-82
2022/09/28 10:30:03;;;;;;;5.73;5.23;;;;;;;9.70;100.00;97300.44;5003973;28;20219;-83
2022/09/28 10:32:38;;;;;;;5.60;4.50;;;;;;;9.85;100.00;97287.66;5000570;28;20199;-83
2022/09/28 10:35:22;;;;;;;5.13;4.27;;;;;;;9.59;100.00;97283.91;5000591;28;20244;-83
2022/09/28 10:37:58;;;;;;;6.80;4.30;;;;;;;9.52;100.00;97285.41;5053467;28;20193;-83
2022/09/28 10:40:31;;;;;;;4.80;3.97;;;;;;;9.50;100.00;97290.84;5048392;28;20718;-83
2022/09/28 10:43:02;;;;;;;5.80;4.17;;;;;;;9.88;100.00;97292.66;5050363;28;20201;-83
2022/09/28 10:45:36;;;;;;;4.33;3.93;;;;;;;9.97;100.00;97294.47;5048654;28;20194;-83
2022/09/28 10:48:16;;;;;;;4.13;3.73;;;;;;;10.25;100.00;97292.78;5053440;28;20247;-83
2022/09/28 10:51:03;;;;;;;5.83;3.37;;;;;;;10.39;100.00;97293.31;5035638;28;20217;-83
2022/09/28 10:53:37;;;;;;;5.33;4.83;;;;;;;10.25;100.00;97289.31;5050715;28;20231;-83
2022/09/28 10:56:07;;;;;;;4.73;4.20;;;;;;;10.96;100.00;97292.28;5016136;28;20298;-83
2022/09/28 10:58:39;;;;;;;4.50;4.10;;;;;;;11.07;100.00;97285.94;4993148;28;20603;-83
2022/09/28 11:01:12;;;;;;;4.57;3.67;;;;;;;11.24;100.00;97276.38;5048874;28;20197;-81
2022/09/28 11:03:50;;;;;;;2.90;2.50;;;;;;;11.30;100.00;97279.28;5048645;28;20216;-81
2022/09/28 11:06:28;;;;;;;3.73;2.30;;;;;;;11.10;100.00;97275.06;5047124;28;20256;-81
2022/09/28 11:09:00;;;;;;;2.57;2.33;;;;;;;11.09;100.00;97274.22;5045340;28;20221;-81
2022/09/28 11:11:30;;;;;;;2.47;2.27;;;;;;;11.21;100.00;97277.53;5029879;28;20209;-81
2022/09/28 11:14:02;;;;;;;3.47;2.50;;;;;;;11.21;100.00;97268.75;5024660;28;20244;-81
2022/09/28 11:16:34;;;;;;;2.70;2.50;;;;;;;11.14;100.00;97269.31;5028805;28;20214;-82
2022/09/28 11:19:06;;;;;;;2.60;2.23;;;;;;;11.16;100.00;97277.13;5026432;28;20229;-81
2022/09/28 11:21:44;;;;;;;3.60;2.30;;;;;;;10.49;100.00;97279.06;5033286;28;20202;-83
2022/09/28 11:24:23;;;;;;;2.57;2.30;;;;;;;10.71;100.00;97272.63;5022072;28;20197;-83
2022/09/28 11:26:56;;;;;;;2.77;2.03;;;;;;;10.55;100.00;97262.63;4998561;28;20208;-83
2022/09/28 11:29:37;;;;;;;2.87;2.07;;;;;;;10.55;100.00;97273.22;5011855;28;20290;-83
2022/09/28 11:32:09;;;;;;;2.00;1.90;;;;;;;10.48;100.00;97276.56;5068437;28;20298;-83
2022/09/28 11:34:46;;;;;;;1.80;1.70;;;;;;;10.52;100.00;97264.75;5036022;28;20192;-83
2022/09/28 11:37:42;;;;;;;4.40;1.80;;;;;;;10.55;100.00;97269.72;5069066;28;20709;-83
2022/09/28 11:40:22;;;;;;;2.00;1.77;;;;;;;10.73;100.00;97277.75;5064441;28;20721;-83
2022/09/28 11:43:03;;;;;;;2.83;2.63;;;;;;;10.74;100.00;97267.00;5063028;28;20335;-83
2022/09/28 11:45:49;;;;;;;3.77;2.10;;;;;;;10.94;100.00;97275.72;5065760;28;20204;-82
2022/09/28 11:48:27;;;;;;;3.10;1.97;;;;;;;10.95;100.00;97272.06;5067968;28;20200;-82
2022/09/28 11:51:02;;;;;;;2.97;1.90;;;;;;;11.00;100.00;97276.91;5001640;28;20242;-83
2022/09/28 11:53:36;;;;;;;2.63;2.30;;;;;;;10.89;100.00;97264.69;4999170;28;20237;-84
2022/09/28 11:56:14;;;;;;;2.10;1.90;;;;;;;10.79;100.00;97271.84;5000696;28;20202;-83
2022/09/28 11:58:48;;;;;;;2.13;1.80;;;;;;;10.94;100.00;97272.22;4997346;28;20268;-83
2022/09/28 12:01:24;;;;;;;2.00;1.90;;;;;;;11.00;100.00;97275.13;5011318;28;20237;-83
2022/09/28 12:04:01;;;;;;;2.13;1.80;;;;;;;11.02;100.00;97267.84;5009396;28;20186;-82